Sitka, AK

1:19 PM AKDT on April 18, 2015 (GMT -0800)
Sitka Rocky Gutierrez | | Change Station
CLOSE
Current Station
Airport
Location: Sitka,
Elevation: 20 ft
Nearby Weather Stations

Elev 20 ft 57.05 °N, 135.36 °W | Updated 26 minutes ago

Light Rain
Light Rain
46 °F
Feels Like 40 °F
N
13
Wind Variable Wind from ESE

Today
High -- | Low -- °F
--% Chance of Precip.
Yesterday
High -- | Low -- °F
Precip. -- in
5:45 AM 8:17 PM
New Moon, 0% visible
Pressure 30.35 in
Visibility 10.0 miles
Clouds Overcast 3700 ft
Windchill 40 °F
Dew Point 38 °F
Humidity 73%
Rainfall 0.08 in
Snow Depth Not available.
UV 2 out of 12
Pollen Not available.
Air Quality Not available.
Flu Activity Sporadic
METAR PASI 182053Z 12011KT 10SM -RA OVC037 08/03 A3034 RMK AO2 SLP275 P0000 60001 T00780033 52000

More Conditions Fewer Conditions

Pressure 30.35 in
Visibility 10.0 miles
Clouds Overcast 3700 ft
Windchill 40 °F
Dew Point 38 °F
Humidity 73%
Rainfall 0.08 in
Snow Depth Not available.
UV 2 out of 12
Pollen Not available.
Air Quality Not available.
Flu Activity Sporadic
METAR PASI 182053Z 12011KT 10SM -RA OVC037 08/03 A3034 RMK AO2 SLP275 P0000 60001 T00780033 52000

More Conditions Fewer Conditions

10-Day Weather Forecast

Almanac

Astronomy

Apr. 18, 2015 Rise Set
Actual Time
Civil Twilight
Nautical Twilight
Astronomical Twilight
Moon
Length of Visible Light
Length of Day
Tomorrow will be .
, % of the Moon is Illuminated

Today's Extremes

State Highs State Lows

Community

WunderPhotos

Upload Photos

1,814,532 photos uploaded!

WunderBlogs® & News

Nearby

Air Quality

  Air Quality AQ Index Pollutant
Not available.

Snow Depth

Station Depth Elevation

Earthquake Activity

City Distance Mag. Time & Date
Minimum magnitude displayed is 2.5.

Coastal Water Temperatures

Place Temperature

Stations

Nearby Weather Stations

Station Location Temp. Windchill Dew Point Humidity Wind Precip. Elev Updated Type